createdAt,value
2019-02-15T00:05:01.907Z,14.59
2019-02-15T00:10:10.261Z,14.16
2019-02-15T00:15:18.345Z,15.32
2019-02-15T00:20:26.526Z,15.76
2019-02-15T00:25:34.661Z,15.63
2019-02-15T00:30:42.937Z,15.69
2019-02-15T00:35:51.068Z,14.82
2019-02-15T00:40:59.183Z,14.96
2019-02-15T00:46:08.220Z,14.69
2019-02-15T00:51:16.441Z,14.97
2019-02-15T00:56:24.580Z,14.28
2019-02-15T01:01:34.417Z,13.75
2019-02-15T01:06:42.584Z,14.48
2019-02-15T01:11:50.674Z,14.64
2019-02-15T01:16:58.780Z,13.35
2019-02-15T01:22:06.936Z,14.76
2019-02-15T01:27:15.092Z,13.52
2019-02-15T01:32:23.467Z,14.04
2019-02-15T01:37:31.524Z,13.52
2019-02-15T01:42:39.667Z,14.26
2019-02-15T01:47:47.852Z,13.48
2019-02-15T01:52:55.998Z,13.45
2019-02-15T01:58:04.263Z,13.96
2019-02-15T02:03:12.425Z,13.59
2019-02-15T02:08:20.748Z,13.13
2019-02-15T02:13:28.799Z,13.43
2019-02-15T02:18:36.991Z,12.81
2019-02-15T02:23:45.151Z,13.20
2019-02-15T02:28:53.297Z,13.48
2019-02-15T02:34:01.384Z,14.47
2019-02-15T02:39:09.883Z,14.66
2019-02-15T02:44:18.296Z,13.34
2019-02-15T02:49:26.373Z,13.50
2019-02-15T02:54:34.586Z,14.45
2019-02-15T02:59:42.808Z,13.80
2019-02-15T03:04:50.985Z,13.78
2019-02-15T03:09:59.047Z,13.84
2019-02-15T03:15:07.226Z,13.78
2019-02-15T03:20:15.382Z,13.74
2019-02-15T03:25:23.454Z,14.37
2019-02-15T03:30:31.687Z,14.31
2019-02-15T03:35:40.158Z,15.22
2019-02-15T03:40:48.198Z,15.82
2019-02-15T03:45:56.337Z,15.12
2019-02-15T03:51:04.481Z,15.24
2019-02-15T03:56:12.562Z,15.84
2019-02-15T04:01:20.662Z,15.18
2019-02-15T04:06:29.137Z,15.45
2019-02-15T04:11:37.132Z,16.38
2019-02-15T04:16:45.460Z,15.87
2019-02-15T04:21:53.628Z,16.54
2019-02-15T04:27:01.701Z,16.32
2019-02-15T04:32:10.374Z,18.54
2019-02-15T04:37:18.450Z,17.88
2019-02-15T04:42:27.038Z,18.04
2019-02-15T04:47:35.141Z,17.76
2019-02-15T04:52:44.029Z,17.07
2019-02-15T04:57:52.119Z,17.10
2019-02-15T05:03:00.686Z,18.73
2019-02-15T05:08:08.827Z,17.40
2019-02-15T05:13:17.360Z,18.20
2019-02-15T05:18:25.590Z,18.17
2019-02-15T05:23:34.125Z,17.89
2019-02-15T05:28:42.485Z,17.74
2019-02-15T05:33:50.985Z,17.68
2019-02-15T05:38:59.025Z,16.61
2019-02-15T05:44:07.729Z,17.09
2019-02-15T05:49:15.846Z,18.07
2019-02-15T05:54:24.006Z,16.17
2019-02-15T05:59:32.021Z,15.85
2019-02-15T06:04:40.063Z,17.00
2019-02-15T06:09:48.620Z,17.12
2019-02-15T06:14:56.781Z,16.99
2019-02-15T06:20:04.869Z,18.21
2019-02-15T06:25:12.911Z,18.59
2019-02-15T06:30:22.285Z,19.40
2019-02-15T06:35:33.014Z,17.61
2019-02-15T06:40:38.534Z,17.70
2019-02-15T06:45:46.973Z,17.47
2019-02-15T06:50:54.876Z,17.31
2019-02-15T06:56:03.114Z,18.91
2019-02-15T07:01:11.337Z,20.26
2019-02-15T07:06:19.684Z,17.47
2019-02-15T07:11:27.681Z,18.88
2019-02-15T07:16:36.134Z,20.89
2019-02-15T07:21:44.293Z,20.09
2019-02-15T07:26:52.976Z,16.40
2019-02-15T07:32:01.237Z,15.86
2019-02-15T07:37:10.153Z,16.33
2019-02-15T07:42:18.633Z,17.40
2019-02-15T07:47:27.015Z,15.17
2019-02-15T07:52:35.520Z,14.93
2019-02-15T07:57:43.677Z,13.50
2019-02-15T08:02:52.010Z,14.66
2019-02-15T08:08:00.085Z,13.45
2019-02-15T08:13:08.361Z,13.73
2019-02-15T08:18:16.864Z,13.33
2019-02-15T08:23:24.989Z,13.00
2019-02-15T08:28:33.753Z,14.15
2019-02-15T08:33:41.764Z,14.38
2019-02-15T08:38:50.119Z,14.19
2019-02-15T08:43:58.233Z,13.94
2019-02-15T08:49:06.353Z,13.40
2019-02-15T08:54:14.697Z,12.60
2019-02-15T08:59:22.849Z,12.46
2019-02-15T09:04:31.009Z,13.04
2019-02-15T09:09:39.169Z,12.34
2019-02-15T09:14:47.296Z,13.11
2019-02-15T09:19:55.505Z,13.26
2019-02-15T09:25:03.664Z,14.13
2019-02-15T09:30:11.710Z,15.01
2019-02-15T09:35:19.990Z,13.83
2019-02-15T09:40:28.121Z,12.91
2019-02-15T09:45:36.664Z,14.59
2019-02-15T09:50:45.040Z,14.47
2019-02-15T09:55:54.848Z,14.65
2019-02-15T10:01:03.036Z,14.79
2019-02-15T10:06:11.441Z,15.81
2019-02-15T10:11:19.608Z,13.87
2019-02-15T10:16:30.728Z,15.90
2019-02-15T10:21:34.361Z,14.53
2019-02-15T10:26:43.286Z,16.16
2019-02-15T10:31:51.289Z,14.37
2019-02-15T10:36:59.443Z,15.81
2019-02-15T10:42:07.541Z,14.97
2019-02-15T10:47:24.474Z,14.65
2019-02-15T10:52:23.793Z,15.94
2019-02-15T10:57:32.264Z,14.19
2019-02-15T11:02:40.419Z,14.18
2019-02-15T11:07:48.558Z,13.95
2019-02-15T11:12:56.651Z,14.63
2019-02-15T11:18:05.117Z,14.92
2019-02-15T11:23:13.293Z,14.05
2019-02-15T11:28:21.429Z,15.78
2019-02-15T11:33:23.409Z,15.17
2019-02-15T11:38:31.569Z,18.67
2019-02-15T11:43:39.613Z,14.29
2019-02-15T11:48:47.769Z,14.21
2019-02-15T11:53:55.969Z,13.06
2019-02-15T11:59:04.344Z,15.30
2019-02-15T12:04:12.533Z,15.04
2019-02-15T12:09:20.610Z,15.88
2019-02-15T12:14:28.625Z,16.64
2019-02-15T12:19:35.165Z,14.25
2019-02-15T12:24:43.151Z,14.10
2019-02-15T12:29:45.090Z,14.64
2019-02-15T12:34:53.220Z,12.24
2019-02-15T12:40:01.614Z,14.07
2019-02-15T12:45:09.738Z,14.42
2019-02-15T12:50:17.823Z,12.18
2019-02-15T12:55:25.803Z,11.76
2019-02-15T13:00:34.211Z,11.61
2019-02-15T13:05:42.652Z,10.96
2019-02-15T13:10:50.766Z,10.06
2019-02-15T13:15:58.909Z,11.21
2019-02-15T13:21:06.968Z,10.16
2019-02-15T13:26:15.156Z,9.74
2019-02-15T13:31:23.374Z,9.87
2019-02-15T13:36:31.388Z,10.39
2019-02-15T13:41:39.533Z,12.57
2019-02-15T13:46:48.008Z,11.26
2019-02-15T13:51:56.028Z,10.51
2019-02-15T13:57:04.369Z,8.92
2019-02-15T14:02:12.502Z,8.09
2019-02-15T14:07:22.021Z,8.04
2019-02-15T14:12:24.061Z,8.77
2019-02-15T14:17:32.106Z,6.94
2019-02-15T14:22:40.313Z,5.49
2019-02-15T14:27:48.413Z,6.21
2019-02-15T14:32:56.545Z,6.47
2019-02-15T14:38:04.846Z,7.52
2019-02-15T14:43:13.013Z,6.49
2019-02-15T14:48:21.125Z,5.29
2019-02-15T14:53:29.249Z,4.77
2019-02-15T14:58:37.426Z,4.36
2019-02-15T15:03:45.525Z,5.72
2019-02-15T15:08:53.625Z,5.03
2019-02-15T15:14:01.779Z,4.14
2019-02-15T15:19:09.804Z,5.62
2019-02-15T15:24:17.873Z,4.07
2019-02-15T15:29:25.826Z,3.49
2019-02-15T15:34:33.972Z,3.12
2019-02-15T15:39:42.110Z,2.92
2019-02-15T15:44:50.193Z,4.40
2019-02-15T15:49:58.396Z,2.38
2019-02-15T15:55:06.442Z,2.69
2019-02-15T16:00:14.569Z,2.69
2019-02-15T16:05:22.642Z,3.72
2019-02-15T16:10:30.741Z,2.96
2019-02-15T16:15:38.839Z,5.28
2019-02-15T16:20:47.005Z,5.36
2019-02-15T16:25:55.119Z,5.35
2019-02-15T16:31:03.213Z,5.06
2019-02-15T16:36:11.361Z,7.16
2019-02-15T16:41:19.551Z,6.27
2019-02-15T16:46:27.514Z,5.38
2019-02-15T16:51:35.660Z,6.49
2019-02-15T16:56:43.765Z,5.92
2019-02-15T17:01:52.034Z,7.69
2019-02-15T17:07:00.374Z,6.25
2019-02-15T17:12:11.769Z,6.38
2019-02-15T17:17:10.422Z,8.78
2019-02-15T17:22:18.747Z,9.94
2019-02-15T17:27:27.345Z,8.03
2019-02-15T17:32:35.879Z,8.70
2019-02-15T17:37:44.120Z,6.60
2019-02-15T17:42:52.533Z,6.86
2019-02-15T17:48:00.766Z,5.74
2019-02-15T17:53:09.209Z,5.57
2019-02-15T17:58:17.329Z,5.50
2019-02-15T18:03:25.692Z,5.01
2019-02-15T18:08:33.842Z,6.21
2019-02-15T18:13:42.000Z,5.65
2019-02-15T18:18:51.078Z,6.42
2019-02-15T18:23:59.163Z,5.55
2019-02-15T18:29:07.236Z,6.33
2019-02-15T18:34:15.359Z,5.54
2019-02-15T18:39:23.489Z,5.48
2019-02-15T18:44:31.583Z,5.23
2019-02-15T18:49:39.686Z,7.04
2019-02-15T18:54:47.810Z,5.62
2019-02-15T18:59:56.030Z,5.00
2019-02-15T19:05:04.118Z,5.75
2019-02-15T19:10:12.342Z,6.40
2019-02-15T19:15:20.367Z,6.48
2019-02-15T19:20:28.452Z,8.27
2019-02-15T19:25:36.781Z,10.33
2019-02-15T19:30:45.095Z,7.04
2019-02-15T19:35:53.581Z,8.24
2019-02-15T19:41:01.674Z,7.47
2019-02-15T19:46:10.277Z,9.07
2019-02-15T19:51:18.963Z,7.48
2019-02-15T19:56:27.121Z,6.86
2019-02-15T20:01:34.472Z,6.49
2019-02-15T20:06:42.577Z,7.37
2019-02-15T20:11:50.635Z,7.32
2019-02-15T20:16:59.053Z,6.14
2019-02-15T20:22:07.167Z,6.14
2019-02-15T20:27:15.314Z,6.29
2019-02-15T20:32:23.427Z,6.12
2019-02-15T20:37:31.602Z,6.31
2019-02-15T20:42:39.718Z,7.60
2019-02-15T20:47:47.795Z,6.48
2019-02-15T20:52:55.987Z,6.40
2019-02-15T20:58:04.021Z,5.71
2019-02-15T21:03:12.079Z,6.49
2019-02-15T21:08:20.229Z,6.52
2019-02-15T21:13:28.350Z,7.13
2019-02-15T21:18:36.484Z,7.37
2019-02-15T21:23:44.610Z,7.17
2019-02-15T21:28:52.718Z,7.34
2019-02-15T21:34:00.828Z,7.19
2019-02-15T21:39:08.972Z,6.49
2019-02-15T21:44:17.406Z,5.40
2019-02-15T21:49:25.566Z,6.39
2019-02-15T21:54:33.728Z,6.24
2019-02-15T21:59:41.972Z,5.91
2019-02-15T22:04:50.133Z,5.59
2019-02-15T22:09:58.249Z,6.45
2019-02-15T22:15:06.753Z,5.76
2019-02-15T22:20:15.097Z,6.66
2019-02-15T22:25:23.347Z,6.70
2019-02-15T22:30:31.407Z,7.72
2019-02-15T22:35:39.929Z,6.56
2019-02-15T22:40:48.089Z,7.34
2019-02-15T22:45:56.205Z,7.14
2019-02-15T22:51:04.357Z,7.30
2019-02-15T22:56:12.477Z,7.06
2019-02-15T23:01:20.610Z,6.08
2019-02-15T23:06:28.601Z,6.07
2019-02-15T23:11:36.736Z,5.81
2019-02-15T23:16:44.883Z,5.56
2019-02-15T23:21:52.987Z,5.17
2019-02-15T23:27:01.037Z,5.65
2019-02-15T23:32:09.152Z,5.25
2019-02-15T23:37:17.122Z,6.80
2019-02-15T23:42:25.189Z,6.11
2019-02-15T23:47:33.329Z,5.71
2019-02-15T23:52:41.461Z,6.15
2019-02-15T23:57:49.565Z,6.45
